Time;durP1;ratioP1;P1;durP2;ratioP2;P2;SDS_P1;SDS_P2;PMS_P1;PMS_P2;Temp;Humidity;BMP_temperature;BMP_pressure;BME280_temperature;BME280_humidity;BME280_pressure;Samples;Min_cycle;Max_cycle;Signal;HPM_P1;HPM_P2
2022/07/25 00:00:12;;;;;;;5.35;4.80;;;;;;;;;;5073041;28;20202;-87
2022/07/25 00:02:40;;;;;;;8.30;5.30;;;;;;;;;;5072317;28;20688;-87
2022/07/25 00:05:07;;;;;;;6.93;4.57;;;;;;;;;;5073330;28;20636;-88
2022/07/25 00:07:34;;;;;;;5.70;5.10;;;;;;;;;;5072466;28;20248;-87
2022/07/25 00:10:01;;;;;;;7.15;5.00;;;;;;;;;;5072771;28;20212;-88
2022/07/25 00:12:30;;;;;;;7.97;5.40;;;;;;;;;;5072132;28;20221;-88
2022/07/25 00:14:57;;;;;;;5.70;5.10;;;;;;;;;;5073041;28;20221;-87
2022/07/25 00:17:24;;;;;;;8.30;5.18;;;;;;;;;;5072122;28;20228;-88
2022/07/25 00:19:52;;;;;;;6.22;5.43;;;;;;;;;;5072998;28;20658;-88
2022/07/25 00:22:19;;;;;;;7.35;5.28;;;;;;;;;;5072164;28;20200;-88
2022/07/25 00:24:46;;;;;;;5.65;4.63;;;;;;;;;;5073180;28;20216;-88
2022/07/25 00:27:13;;;;;;;6.75;5.32;;;;;;;;;;5072364;28;20585;-88
2022/07/25 00:29:42;;;;;;;5.72;4.90;;;;;;;;;;5072862;28;20685;-88
2022/07/25 00:32:09;;;;;;;5.40;4.90;;;;;;;;;;5072889;28;20217;-88
2022/07/25 00:34:36;;;;;;;5.35;4.78;;;;;;;;;;5072993;28;20228;-88
2022/07/25 00:37:03;;;;;;;8.50;5.38;;;;;;;;;;5072746;28;20221;-88
2022/07/25 00:39:30;;;;;;;5.70;5.05;;;;;;;;;;5072755;28;20229;-87
2022/07/25 00:41:57;;;;;;;5.60;4.97;;;;;;;;;;5072790;28;20283;-88
2022/07/25 00:44:25;;;;;;;6.40;5.80;;;;;;;;;;5072356;28;20232;-87
2022/07/25 00:46:54;;;;;;;6.53;4.90;;;;;;;;;;5072921;28;20228;-88
2022/07/25 00:49:21;;;;;;;8.55;4.95;;;;;;;;;;5072298;28;20243;-88
2022/07/25 00:51:48;;;;;;;5.75;5.15;;;;;;;;;;5087803;28;20715;-87
2022/07/25 00:54:16;;;;;;;5.95;5.35;;;;;;;;;;5072727;28;20243;-88
2022/07/25 00:56:43;;;;;;;5.35;4.85;;;;;;;;;;5072860;28;20229;-88
2022/07/25 00:59:10;;;;;;;9.98;5.28;;;;;;;;;;5071984;28;20236;-87
2022/07/25 01:01:41;;;;;;;5.60;5.10;;;;;;;;;;5072505;28;20201;-88
2022/07/25 01:04:09;;;;;;;6.30;5.22;;;;;;;;;;5070955;28;20308;-87
2022/07/25 01:06:36;;;;;;;6.38;5.38;;;;;;;;;;5072930;28;20225;-88
2022/07/25 01:09:04;;;;;;;8.73;5.07;;;;;;;;;;5056024;28;20616;-87
2022/07/25 01:11:31;;;;;;;6.55;5.20;;;;;;;;;;5056639;28;20221;-88
2022/07/25 01:13:58;;;;;;;5.78;5.28;;;;;;;;;;5055869;28;20234;-88
2022/07/25 01:16:25;;;;;;;6.47;5.88;;;;;;;;;;5056395;28;20828;-87
2022/07/25 01:18:53;;;;;;;6.55;5.93;;;;;;;;;;5055950;28;20242;-88
2022/07/25 01:21:21;;;;;;;6.20;5.60;;;;;;;;;;5056426;28;20202;-88
2022/07/25 01:23:54;;;;;;;6.28;5.63;;;;;;;;;;5066811;28;20229;-87
2022/07/25 01:26:21;;;;;;;6.05;5.55;;;;;;;;;;5076515;28;20645;-88
2022/07/25 01:28:48;;;;;;;7.53;5.93;;;;;;;;;;5075700;28;20239;-88
2022/07/25 01:31:16;;;;;;;6.50;5.88;;;;;;;;;;5076126;28;20539;-88
2022/07/25 01:33:43;;;;;;;6.70;5.82;;;;;;;;;;5076031;28;20229;-87
2022/07/25 01:36:10;;;;;;;7.15;6.30;;;;;;;;;;5076573;28;20224;-88
2022/07/25 01:38:39;;;;;;;7.82;6.07;;;;;;;;;;5075552;28;20237;-88
2022/07/25 01:41:06;;;;;;;9.40;5.70;;;;;;;;;;5076348;28;20220;-87
2022/07/25 01:43:34;;;;;;;8.02;5.70;;;;;;;;;;5075811;28;20241;-87
2022/07/25 01:46:01;;;;;;;5.90;5.30;;;;;;;;;;5075871;28;20194;-87
2022/07/25 01:48:28;;;;;;;6.07;5.40;;;;;;;;;;5075359;28;20233;-87
2022/07/25 01:50:55;;;;;;;6.05;5.45;;;;;;;;;;5075955;28;20201;-86
2022/07/25 01:53:22;;;;;;;6.07;4.97;;;;;;;;;;5075494;28;20244;-88
2022/07/25 01:55:50;;;;;;;8.73;6.07;;;;;;;;;;5076014;28;20209;-87
2022/07/25 01:58:17;;;;;;;6.38;5.78;;;;;;;;;;5111344;22;20228;-87
2022/07/25 02:00:44;;;;;;;8.45;5.65;;;;;;;;;;5078711;28;20200;-87
2022/07/25 02:03:29;;;;;;;5.82;5.25;;;;;;;;;;5094680;28;20228;-87
2022/07/25 02:05:56;;;;;;;9.82;5.97;;;;;;;;;;5095400;28;20185;-87
2022/07/25 02:08:24;;;;;;;6.63;5.97;;;;;;;;;;5094662;28;20237;-87
2022/07/25 02:10:52;;;;;;;6.00;5.40;;;;;;;;;;5095046;28;20193;-87
2022/07/25 02:13:19;;;;;;;7.00;6.30;;;;;;;;;;5094458;28;20236;-87
2022/07/25 02:15:46;;;;;;;7.68;6.50;;;;;;;;;;5094649;28;20580;-87
2022/07/25 02:18:13;;;;;;;7.53;6.15;;;;;;;;;;5093524;28;20247;-87
2022/07/25 02:20:40;;;;;;;10.30;6.50;;;;;;;;;;5095150;28;20201;-87
2022/07/25 02:23:08;;;;;;;8.25;6.95;;;;;;;;;;5094297;28;20243;-87
2022/07/25 02:25:35;;;;;;;7.55;5.85;;;;;;;;;;5094928;28;20258;-87
2022/07/25 02:28:03;;;;;;;10.40;5.95;;;;;;;;;;5094286;28;20247;-87
2022/07/25 02:30:31;;;;;;;7.25;6.50;;;;;;;;;;5094397;28;20204;-87
2022/07/25 02:32:58;;;;;;;8.75;6.10;;;;;;;;;;5093608;28;20240;-87
2022/07/25 02:35:26;;;;;;;6.93;5.82;;;;;;;;;;5094684;28;20270;-86
2022/07/25 02:37:53;;;;;;;10.73;6.20;;;;;;;;;;5094355;28;20236;-87
2022/07/25 02:40:20;;;;;;;7.68;6.13;;;;;;;;;;5094624;28;20204;-87
2022/07/25 02:42:47;;;;;;;9.30;6.68;;;;;;;;;;5094041;28;20254;-87
2022/07/25 02:45:15;;;;;;;10.88;6.63;;;;;;;;;;5094635;28;20581;-87
2022/07/25 02:47:43;;;;;;;6.85;6.15;;;;;;;;;;5093735;28;20240;-87
2022/07/25 02:50:10;;;;;;;6.32;5.72;;;;;;;;;;5094444;28;20185;-87
2022/07/25 02:52:37;;;;;;;7.45;6.43;;;;;;;;;;5093641;28;20240;-87
2022/07/25 02:55:04;;;;;;;7.68;6.43;;;;;;;;;;5094219;28;20210;-87
2022/07/25 02:57:31;;;;;;;6.78;6.07;;;;;;;;;;5093672;28;20243;-87
2022/07/25 02:59:58;;;;;;;9.57;6.47;;;;;;;;;;5094486;28;20204;-87
2022/07/25 03:02:27;;;;;;;7.18;6.30;;;;;;;;;;5093516;28;20547;-87
2022/07/25 03:04:54;;;;;;;7.45;6.25;;;;;;;;;;5094348;28;20683;-87
2022/07/25 03:07:21;;;;;;;6.93;5.90;;;;;;;;;;5093180;28;20731;-87
2022/07/25 03:09:48;;;;;;;7.45;6.15;;;;;;;;;;5094192;28;20209;-87
2022/07/25 03:12:15;;;;;;;7.18;6.43;;;;;;;;;;5093172;28;20223;-87
2022/07/25 03:14:42;;;;;;;8.95;6.50;;;;;;;;;;5093729;28;20197;-87
2022/07/25 03:17:09;;;;;;;7.13;6.40;;;;;;;;;;5093799;28;20228;-87
2022/07/25 03:19:38;;;;;;;8.40;6.25;;;;;;;;;;5094623;28;20200;-87
2022/07/25 03:22:05;;;;;;;7.57;5.95;;;;;;;;;;5094700;28;20201;-87
2022/07/25 03:24:32;;;;;;;7.63;6.22;;;;;;;;;;5093310;28;20227;-87
2022/07/25 03:26:59;;;;;;;8.65;5.78;;;;;;;;;;5092648;28;20224;-87
2022/07/25 03:29:26;;;;;;;8.05;6.00;;;;;;;;;;5093081;28;20237;-87
2022/07/25 03:31:53;;;;;;;10.10;5.85;;;;;;;;;;5093468;28;20217;-87
2022/07/25 03:34:21;;;;;;;9.27;6.77;;;;;;;;;;5092878;28;20606;-87
2022/07/25 03:36:49;;;;;;;7.45;6.47;;;;;;;;;;5093487;28;20216;-87
2022/07/25 03:39:16;;;;;;;8.15;6.60;;;;;;;;;;5092839;28;20319;-87
2022/07/25 03:41:44;;;;;;;7.70;5.80;;;;;;;;;;5093317;28;20215;-87
2022/07/25 03:44:11;;;;;;;6.15;5.55;;;;;;;;;;5092740;28;20311;-87
2022/07/25 03:46:38;;;;;;;6.93;5.50;;;;;;;;;;5093326;28;20261;-87
2022/07/25 03:49:05;;;;;;;11.13;5.77;;;;;;;;;;5092540;28;21025;-87
2022/07/25 03:51:32;;;;;;;8.98;6.80;;;;;;;;;;5094509;28;20212;-87
2022/07/25 03:54:04;;;;;;;7.85;5.85;;;;;;;;;;5092421;28;20263;-87
2022/07/25 03:56:32;;;;;;;6.63;5.93;;;;;;;;;;5093205;28;20296;-86
2022/07/25 03:58:59;;;;;;;7.03;6.30;;;;;;;;;;5092272;28;20248;-87
2022/07/25 04:01:26;;;;;;;9.83;6.20;;;;;;;;;;5093034;28;20205;-86
2022/07/25 04:03:53;;;;;;;7.27;6.07;;;;;;;;;;5092353;28;20235;-87
2022/07/25 04:06:20;;;;;;;7.10;5.80;;;;;;;;;;5093125;28;20211;-87
2022/07/25 04:08:48;;;;;;;6.17;5.57;;;;;;;;;;5092193;28;20263;-87
2022/07/25 04:11:16;;;;;;;6.47;5.87;;;;;;;;;;5092782;28;20555;-87
2022/07/25 04:13:44;;;;;;;6.80;6.10;;;;;;;;;;5091979;28;20644;-87
2022/07/25 04:16:12;;;;;;;6.70;5.78;;;;;;;;;;5092604;28;20208;-86
2022/07/25 04:18:39;;;;;;;7.50;5.90;;;;;;;;;;5091930;28;20248;-86
2022/07/25 04:21:06;;;;;;;6.00;5.50;;;;;;;;;;5093022;28;20603;-87
2022/07/25 04:23:34;;;;;;;9.15;5.97;;;;;;;;;;5092243;28;20239;-87
2022/07/25 04:26:01;;;;;;;7.80;6.07;;;;;;;;;;5092610;28;20295;-87
2022/07/25 04:28:29;;;;;;;6.80;6.20;;;;;;;;;;5092058;28;20240;-87
2022/07/25 04:30:58;;;;;;;8.20;6.23;;;;;;;;;;5092717;28;20194;-87
2022/07/25 04:33:25;;;;;;;8.97;6.03;;;;;;;;;;5091816;28;20228;-87
2022/07/25 04:35:52;;;;;;;6.43;5.47;;;;;;;;;;5092928;28;20204;-87
2022/07/25 04:38:19;;;;;;;7.07;5.80;;;;;;;;;;5091819;28;20236;-87
2022/07/25 04:40:46;;;;;;;8.83;6.67;;;;;;;;;;5092473;28;20216;-87
2022/07/25 04:43:13;;;;;;;7.00;6.30;;;;;;;;;;5091869;28;20580;-87
2022/07/25 04:45:42;;;;;;;8.03;6.53;;;;;;;;;;5092463;28;20207;-87
2022/07/25 04:48:09;;;;;;;7.33;6.53;;;;;;;;;;5091905;28;20240;-87
2022/07/25 04:50:36;;;;;;;10.40;6.60;;;;;;;;;;5092539;28;20251;-87
2022/07/25 04:53:03;;;;;;;7.35;6.45;;;;;;;;;;5091869;28;20228;-87
2022/07/25 04:55:31;;;;;;;7.30;6.60;;;;;;;;;;5093088;28;20200;-87
2022/07/25 04:57:58;;;;;;;9.10;6.63;;;;;;;;;;5091780;28;20244;-87
2022/07/25 05:00:25;;;;;;;9.30;6.22;;;;;;;;;;5092388;28;20196;-87
2022/07/25 05:02:54;;;;;;;9.43;6.63;;;;;;;;;;5091774;28;20232;-87
2022/07/25 05:05:22;;;;;;;9.03;6.77;;;;;;;;;;5092246;28;20212;-87
2022/07/25 05:07:49;;;;;;;9.65;6.55;;;;;;;;;;5091860;28;20614;-85
2022/07/25 05:10:16;;;;;;;8.30;7.43;;;;;;;;;;5092248;28;20235;-87
2022/07/25 05:12:44;;;;;;;9.05;7.25;;;;;;;;;;5091575;28;20254;-87
2022/07/25 05:15:11;;;;;;;11.15;6.75;;;;;;;;;;5092617;28;20215;-87
2022/07/25 05:17:38;;;;;;;11.68;7.53;;;;;;;;;;5091778;28;20289;-87
2022/07/25 05:20:08;;;;;;;10.05;7.28;;;;;;;;;;5092913;28;20201;-87
2022/07/25 05:22:35;;;;;;;8.73;7.50;;;;;;;;;;5091587;28;20262;-87
2022/07/25 05:25:02;;;;;;;9.65;7.22;;;;;;;;;;5089778;28;20209;-87
2022/07/25 05:27:29;;;;;;;9.57;7.18;;;;;;;;;;5091648;27;20233;-87
2022/07/25 05:29:56;;;;;;;12.45;7.68;;;;;;;;;;5091926;28;20213;-87
2022/07/25 05:32:23;;;;;;;9.65;7.22;;;;;;;;;;5091651;27;20567;-87
2022/07/25 05:34:51;;;;;;;8.85;7.93;;;;;;;;;;5092623;28;20228;-88
2022/07/25 05:37:20;;;;;;;9.27;7.60;;;;;;;;;;5092161;27;20224;-87
2022/07/25 05:39:47;;;;;;;10.15;8.40;;;;;;;;;;5093469;28;20209;-87
2022/07/25 05:42:14;;;;;;;12.27;7.80;;;;;;;;;;5093288;27;20729;-87
2022/07/25 05:44:41;;;;;;;10.98;7.10;;;;;;;;;;5092459;28;20208;-87
2022/07/25 05:47:09;;;;;;;9.15;7.78;;;;;;;;;;5091812;27;20593;-87
2022/07/25 05:49:36;;;;;;;13.77;7.90;;;;;;;;;;5092579;28;20204;-87
2022/07/25 05:52:03;;;;;;;9.48;7.70;;;;;;;;;;5095700;28;20212;-87
2022/07/25 05:54:32;;;;;;;8.02;6.70;;;;;;;;;;5096096;27;20240;-88
2022/07/25 05:57:00;;;;;;;7.68;6.88;;;;;;;;;;5096196;28;20712;-87
2022/07/25 05:59:27;;;;;;;7.07;6.38;;;;;;;;;;5095210;27;20315;-89
2022/07/25 06:01:54;;;;;;;7.53;6.80;;;;;;;;;;5095807;28;20204;-86
2022/07/25 06:04:21;;;;;;;7.72;6.90;;;;;;;;;;5095752;27;20231;-86
2022/07/25 06:06:51;;;;;;;8.75;6.55;;;;;;;;;;5095575;28;20841;-85
2022/07/25 06:09:18;;;;;;;8.43;6.65;;;;;;;;;;5095290;27;20243;-85
2022/07/25 06:11:46;;;;;;;10.55;6.50;;;;;;;;;;5095732;28;20205;-86
2022/07/25 06:14:14;;;;;;;8.10;7.03;;;;;;;;;;5095064;27;20232;-86
2022/07/25 06:16:42;;;;;;;7.75;6.90;;;;;;;;;;5095442;28;20258;-86
2022/07/25 06:19:09;;;;;;;9.50;7.35;;;;;;;;;;5095556;27;20578;-87
2022/07/25 06:21:36;;;;;;;7.55;6.65;;;;;;;;;;5095233;28;20567;-86
2022/07/25 06:24:03;;;;;;;8.65;6.68;;;;;;;;;;5094564;27;20236;-87
2022/07/25 06:26:31;;;;;;;8.07;6.65;;;;;;;;;;5095245;28;20193;-87
2022/07/25 06:28:59;;;;;;;7.05;6.35;;;;;;;;;;5094597;27;20243;-87
2022/07/25 06:31:26;;;;;;;7.35;6.53;;;;;;;;;;5095232;28;20239;-89
2022/07/25 06:33:53;;;;;;;6.82;5.72;;;;;;;;;;5094582;27;20243;-91
2022/07/25 06:36:20;;;;;;;6.47;5.82;;;;;;;;;;5096989;28;20208;-83
2022/07/25 06:38:48;;;;;;;6.97;5.75;;;;;;;;;;5100110;27;20236;-86
2022/07/25 06:41:15;;;;;;;6.85;5.53;;;;;;;;;;5099445;28;20220;-84
2022/07/25 06:43:42;;;;;;;11.07;5.70;;;;;;;;;;5100858;27;20235;-83
2022/07/25 06:46:12;;;;;;;10.93;6.20;;;;;;;;;;5099924;28;20208;-84
2022/07/25 06:48:39;;;;;;;7.07;5.63;;;;;;;;;;5100134;27;20248;-84
2022/07/25 06:51:06;;;;;;;9.50;5.13;;;;;;;;;;5099534;28;20215;-84
2022/07/25 06:53:34;;;;;;;6.57;5.30;;;;;;;;;;5099453;27;20729;-85
2022/07/25 06:56:01;;;;;;;5.93;5.38;;;;;;;;;;5100813;28;20209;-84
2022/07/25 06:58:28;;;;;;;7.55;5.80;;;;;;;;;;5102323;27;20236;-84
2022/07/25 07:00:55;;;;;;;6.00;5.40;;;;;;;;;;5101499;28;20204;-85
2022/07/25 07:03:23;;;;;;;9.65;5.57;;;;;;;;;;5103019;28;20236;-85
2022/07/25 07:05:50;;;;;;;7.40;5.97;;;;;;;;;;5103711;28;20653;-84
2022/07/25 07:08:17;;;;;;;8.23;5.50;;;;;;;;;;5103753;28;20240;-85
2022/07/25 07:10:44;;;;;;;6.45;5.60;;;;;;;;;;5104821;28;20211;-85
2022/07/25 07:13:12;;;;;;;7.57;5.07;;;;;;;;;;5103131;28;20290;-85
2022/07/25 07:15:40;;;;;;;6.55;5.55;;;;;;;;;;5105107;28;20200;-82
2022/07/25 07:18:07;;;;;;;7.18;5.15;;;;;;;;;;5107219;28;20247;-84
2022/07/25 07:20:35;;;;;;;8.27;5.55;;;;;;;;;;5106730;28;20237;-84
2022/07/25 07:23:03;;;;;;;5.95;5.10;;;;;;;;;;5106199;28;20248;-84
2022/07/25 07:25:30;;;;;;;6.75;5.60;;;;;;;;;;5108980;28;20211;-84
2022/07/25 07:27:57;;;;;;;5.72;5.07;;;;;;;;;;5107816;28;20773;-83
2022/07/25 07:30:25;;;;;;;5.18;4.68;;;;;;;;;;5109508;28;20212;-84
2022/07/25 07:32:52;;;;;;;5.82;4.97;;;;;;;;;;5107756;28;20255;-83
2022/07/25 07:35:19;;;;;;;5.70;5.20;;;;;;;;;;5107675;28;20229;-84
2022/07/25 07:37:48;;;;;;;6.28;5.20;;;;;;;;;;5107919;28;20236;-84
2022/07/25 07:40:15;;;;;;;5.63;5.10;;;;;;;;;;5104631;28;20208;-84
2022/07/25 07:42:43;;;;;;;7.05;4.90;;;;;;;;;;5106712;28;20232;-84
2022/07/25 07:45:14;;;;;;;6.07;5.45;;;;;;;;;;5105287;28;20687;-84
2022/07/25 07:47:46;;;;;;;6.55;5.32;;;;;;;;;;5106155;28;20239;-84
2022/07/25 07:50:13;;;;;;;5.20;4.70;;;;;;;;;;5105015;28;20205;-84
2022/07/25 07:52:40;;;;;;;5.57;5.07;;;;;;;;;;5105267;28;20236;-84
2022/07/25 07:57:54;;;;;;;8.43;5.65;;;;;;;;;;5093638;28;20825;-84
2022/07/25 08:00:22;;;;;;;6.63;4.90;;;;;;;;;;5094854;28;20201;-84
2022/07/25 08:02:52;;;;;;;5.13;4.60;;;;;;;;;;5095177;28;20232;-83
2022/07/25 08:05:22;;;;;;;5.53;5.03;;;;;;;;;;5098299;28;20221;-83
2022/07/25 08:07:50;;;;;;;5.63;5.03;;;;;;;;;;5102266;22;20233;-83
2022/07/25 08:10:19;;;;;;;5.70;4.90;;;;;;;;;;5064369;28;20208;-82
2022/07/25 08:12:46;;;;;;;5.32;4.93;;;;;;;;;;5071599;28;20257;-83
2022/07/25 08:15:13;;;;;;;5.20;4.68;;;;;;;;;;5073138;28;20693;-85
2022/07/25 08:17:40;;;;;;;5.68;4.43;;;;;;;;;;5072413;28;20229;-84
2022/07/25 08:20:08;;;;;;;5.40;4.90;;;;;;;;;;5072745;28;20205;-84
2022/07/25 08:22:39;;;;;;;8.30;5.13;;;;;;;;;;5072149;28;20224;-84
2022/07/25 08:25:07;;;;;;;9.48;5.13;;;;;;;;;;5073139;28;20584;-85
2022/07/25 08:27:35;;;;;;;4.85;4.45;;;;;;;;;;5072615;28;20236;-85
2022/07/25 08:30:02;;;;;;;5.80;5.07;;;;;;;;;;5072657;28;20209;-84
2022/07/25 08:32:31;;;;;;;5.20;4.78;;;;;;;;;;5072177;28;20232;-85
2022/07/25 08:35:00;;;;;;;5.70;4.88;;;;;;;;;;5072712;28;20236;-84
2022/07/25 08:37:28;;;;;;;5.78;5.05;;;;;;;;;;5072233;28;20240;-85
2022/07/25 08:39:55;;;;;;;5.32;4.90;;;;;;;;;;5073009;28;20621;-85
2022/07/25 08:42:22;;;;;;;7.38;5.65;;;;;;;;;;5072590;28;20216;-85
2022/07/25 08:44:57;;;;;;;5.63;5.00;;;;;;;;;;5073526;28;20182;-85
2022/07/25 08:47:24;;;;;;;5.78;5.28;;;;;;;;;;5072175;28;20213;-85
2022/07/25 08:49:51;;;;;;;5.93;4.97;;;;;;;;;;5072728;28;20214;-85
2022/07/25 08:52:19;;;;;;;5.90;4.72;;;;;;;;;;5072561;28;20216;-86
2022/07/25 08:54:47;;;;;;;4.88;4.47;;;;;;;;;;5073141;28;20257;-86
2022/07/25 08:57:14;;;;;;;5.20;4.70;;;;;;;;;;5072100;28;20237;-86
2022/07/25 08:59:41;;;;;;;7.60;4.93;;;;;;;;;;5072686;28;20327;-88
2022/07/25 09:02:13;;;;;;;8.20;4.80;;;;;;;;;;5072695;28;20584;-87
2022/07/25 09:04:42;;;;;;;4.47;4.05;;;;;;;;;;5073322;28;20205;-87
2022/07/25 09:07:09;;;;;;;4.78;4.07;;;;;;;;;;5071216;28;20224;-87
2022/07/25 09:09:37;;;;;;;4.60;4.20;;;;;;;;;;5071649;28;20584;-87
2022/07/25 09:12:04;;;;;;;4.68;4.18;;;;;;;;;;5071901;28;20247;-84
2022/07/25 09:14:31;;;;;;;4.50;4.10;;;;;;;;;;5071602;28;20244;-85
2022/07/25 09:16:58;;;;;;;5.55;4.35;;;;;;;;;;5071992;28;20668;-86
2022/07/25 09:19:27;;;;;;;4.78;4.38;;;;;;;;;;5071786;28;20237;-86
2022/07/25 09:22:01;;;;;;;5.90;4.10;;;;;;;;;;5071805;28;20213;-85
2022/07/25 09:24:29;;;;;;;5.28;4.80;;;;;;;;;;5071612;28;20256;-84
2022/07/25 09:26:57;;;;;;;4.47;4.07;;;;;;;;;;5076368;28;20296;-87
2022/07/25 09:29:25;;;;;;;4.78;4.38;;;;;;;;;;5076464;28;20282;-88
2022/07/25 09:31:52;;;;;;;4.15;3.85;;;;;;;;;;5077152;28;20204;-89
2022/07/25 09:34:34;;;;;;;4.80;4.40;;;;;;;;;;5075756;28;20235;-87
2022/07/25 09:37:02;;;;;;;4.45;4.05;;;;;;;;;;5083756;28;20204;-86
2022/07/25 09:39:40;;;;;;;5.70;4.28;;;;;;;;;;5075196;28;20232;-85
2022/07/25 09:42:16;;;;;;;4.80;4.40;;;;;;;;;;5075283;28;20205;-86
2022/07/25 09:44:45;;;;;;;5.47;4.13;;;;;;;;;;5075058;28;20229;-88
2022/07/25 09:47:12;;;;;;;4.97;4.47;;;;;;;;;;5074873;28;20300;-87
2022/07/25 09:49:42;;;;;;;5.22;4.72;;;;;;;;;;5076006;28;20209;-88
2022/07/25 09:52:09;;;;;;;5.93;4.78;;;;;;;;;;5075127;28;20216;-88
2022/07/25 09:54:36;;;;;;;5.88;4.63;;;;;;;;;;5077213;28;20224;-87
2022/07/25 09:57:04;;;;;;;4.68;4.25;;;;;;;;;;5077416;28;20213;-87
2022/07/25 09:59:31;;;;;;;4.15;3.75;;;;;;;;;;5071491;28;20225;-86
2022/07/25 10:02:04;;;;;;;4.90;4.50;;;;;;;;;;5075546;28;20682;-89
2022/07/25 10:04:40;;;;;;;4.43;4.13;;;;;;;;;;5075831;28;20228;-89
2022/07/25 10:07:11;;;;;;;4.43;4.05;;;;;;;;;;5075933;28;20215;-89
2022/07/25 10:09:41;;;;;;;4.25;3.95;;;;;;;;;;5075296;28;20220;-87
2022/07/25 10:12:10;;;;;;;4.22;3.90;;;;;;;;;;5074638;28;20231;-88
2022/07/25 10:14:38;;;;;;;4.65;4.25;;;;;;;;;;5075050;28;20267;-86
2022/07/25 10:17:05;;;;;;;5.13;4.63;;;;;;;;;;5075035;28;20207;-87
2022/07/25 10:19:42;;;;;;;5.05;4.63;;;;;;;;;;5074848;28;20229;-85
2022/07/25 10:22:11;;;;;;;4.53;4.07;;;;;;;;;;5074146;28;20216;-87
2022/07/25 10:24:39;;;;;;;4.97;4.47;;;;;;;;;;5074652;28;20204;-86
2022/07/25 10:27:09;;;;;;;3.95;3.63;;;;;;;;;;5074428;28;20211;-86
2022/07/25 10:29:36;;;;;;;4.55;4.07;;;;;;;;;;5074259;28;20231;-87
2022/07/25 10:32:07;;;;;;;4.97;4.47;;;;;;;;;;5074477;28;20205;-87
2022/07/25 10:34:35;;;;;;;5.13;4.63;;;;;;;;;;5074297;28;20221;-87
2022/07/25 10:37:11;;;;;;;4.60;4.20;;;;;;;;;;5073945;28;20212;-85
2022/07/25 10:39:39;;;;;;;5.05;4.18;;;;;;;;;;5074215;28;20239;-86
2022/07/25 10:42:06;;;;;;;3.83;3.53;;;;;;;;;;5073919;28;20200;-87
2022/07/25 10:44:40;;;;;;;4.68;3.78;;;;;;;;;;5073912;28;20215;-86
2022/07/25 10:47:09;;;;;;;4.80;3.90;;;;;;;;;;5073542;28;20211;-86
2022/07/25 10:49:37;;;;;;;4.45;4.05;;;;;;;;;;5073897;28;20236;-85
2022/07/25 10:52:05;;;;;;;4.47;4.07;;;;;;;;;;5074166;28;20212;-85
2022/07/25 10:54:37;;;;;;;4.43;4.03;;;;;;;;;;5073251;28;20232;-87
2022/07/25 10:57:05;;;;;;;4.35;3.92;;;;;;;;;;5073828;28;20205;-85
2022/07/25 10:59:33;;;;;;;4.35;4.00;;;;;;;;;;5072120;28;20715;-88
2022/07/25 11:02:01;;;;;;;5.07;4.28;;;;;;;;;;5089906;28;20307;-87
2022/07/25 11:04:28;;;;;;;4.55;4.15;;;;;;;;;;5084634;28;20227;-88
2022/07/25 11:06:55;;;;;;;4.35;3.92;;;;;;;;;;5077382;28;20204;-85
2022/07/25 11:09:23;;;;;;;4.60;4.20;;;;;;;;;;5073280;28;20240;-86
2022/07/25 11:11:53;;;;;;;4.70;3.90;;;;;;;;;;5079383;28;20231;-88
2022/07/25 11:14:22;;;;;;;4.43;4.03;;;;;;;;;;5093492;28;20227;-88
2022/07/25 11:16:55;;;;;;;4.90;4.53;;;;;;;;;;5094047;28;20231;-87
2022/07/25 11:19:23;;;;;;;4.63;4.18;;;;;;;;;;5074389;28;20237;-88
2022/07/25 11:21:51;;;;;;;4.50;4.07;;;;;;;;;;5073374;28;20220;-88
2022/07/25 11:24:18;;;;;;;4.43;4.07;;;;;;;;;;5072788;28;20243;-88
2022/07/25 11:26:46;;;;;;;4.40;3.97;;;;;;;;;;5073481;28;20653;-85
2022/07/25 11:29:20;;;;;;;4.57;3.83;;;;;;;;;;5072672;28;20241;-88
2022/07/25 11:31:54;;;;;;;4.55;4.15;;;;;;;;;;5073633;28;20613;-87
2022/07/25 11:34:23;;;;;;;4.43;4.05;;;;;;;;;;5073152;28;20244;-87
2022/07/25 11:36:50;;;;;;;4.95;4.25;;;;;;;;;;5073774;28;20225;-88
2022/07/25 11:39:18;;;;;;;4.45;4.05;;;;;;;;;;5073291;28;20240;-89
2022/07/25 11:41:46;;;;;;;5.72;4.22;;;;;;;;;;5073140;28;20236;-88
2022/07/25 11:44:13;;;;;;;4.75;4.18;;;;;;;;;;5085775;28;20593;-89
2022/07/25 11:46:46;;;;;;;4.30;4.00;;;;;;;;;;5093315;28;20533;-87
2022/07/25 11:49:13;;;;;;;4.75;4.28;;;;;;;;;;5091946;28;20330;-87
2022/07/25 11:51:40;;;;;;;4.32;3.92;;;;;;;;;;5092568;28;20590;-87
2022/07/25 11:54:09;;;;;;;4.90;4.20;;;;;;;;;;5092433;28;20228;-87
2022/07/25 11:56:38;;;;;;;4.68;4.05;;;;;;;;;;5093116;28;20300;-88
2022/07/25 11:59:05;;;;;;;4.03;3.72;;;;;;;;;;5092441;28;20246;-87
2022/07/25 12:01:36;;;;;;;6.40;4.07;;;;;;;;;;5093199;28;20295;-87
2022/07/25 12:04:13;;;;;;;4.35;3.92;;;;;;;;;;5092157;28;20232;-88
2022/07/25 12:06:40;;;;;;;4.28;3.67;;;;;;;;;;5092806;28;20200;-89
2022/07/25 12:09:13;;;;;;;4.38;3.97;;;;;;;;;;5092185;28;20243;-86
2022/07/25 12:11:41;;;;;;;4.32;3.92;;;;;;;;;;5091290;28;20204;-88
2022/07/25 12:14:08;;;;;;;6.03;4.32;;;;;;;;;;5091818;28;20224;-87
2022/07/25 12:16:36;;;;;;;5.35;4.25;;;;;;;;;;5092229;28;20252;-87
2022/07/25 12:19:03;;;;;;;5.32;4.20;;;;;;;;;;5091170;28;20609;-86
2022/07/25 12:21:32;;;;;;;4.28;3.97;;;;;;;;;;5083398;28;20208;-88
2022/07/25 12:23:59;;;;;;;5.43;4.00;;;;;;;;;;5093098;28;20232;-87
2022/07/25 12:26:26;;;;;;;7.05;4.63;;;;;;;;;;5093342;28;20200;-84
2022/07/25 12:28:53;;;;;;;4.15;3.83;;;;;;;;;;5092788;28;20240;-90
2022/07/25 12:31:20;;;;;;;4.35;3.85;;;;;;;;;;5093161;28;20207;-89
2022/07/25 12:33:48;;;;;;;4.57;3.83;;;;;;;;;;5073248;28;20251;-88
2022/07/25 12:36:15;;;;;;;4.55;4.15;;;;;;;;;;5072824;28;20286;-88
2022/07/25 12:38:44;;;;;;;4.65;4.25;;;;;;;;;;5084297;28;20246;-88
2022/07/25 12:41:11;;;;;;;5.82;4.50;;;;;;;;;;5084906;28;20196;-89
2022/07/25 12:43:38;;;;;;;4.45;4.05;;;;;;;;;;5094000;28;20231;-88
2022/07/25 12:46:06;;;;;;;4.32;3.92;;;;;;;;;;5093802;28;20294;-88
2022/07/25 12:48:33;;;;;;;5.82;4.15;;;;;;;;;;5092885;28;20656;-88
2022/07/25 12:51:00;;;;;;;5.38;4.40;;;;;;;;;;5074334;28;20247;-89
2022/07/25 12:53:28;;;;;;;3.95;3.55;;;;;;;;;;5073490;28;20240;-87
2022/07/25 12:55:56;;;;;;;3.90;3.60;;;;;;;;;;5072072;28;20221;-87
2022/07/25 12:58:23;;;;;;;4.60;4.20;;;;;;;;;;5071376;28;20256;-88
2022/07/25 13:00:50;;;;;;;4.20;3.80;;;;;;;;;;5075595;28;20232;-88
2022/07/25 13:03:17;;;;;;;6.68;3.63;;;;;;;;;;5075716;28;20236;-86
2022/07/25 13:05:44;;;;;;;3.40;3.10;;;;;;;;;;5076239;28;20204;-86
2022/07/25 13:08:11;;;;;;;4.30;3.00;;;;;;;;;;5077206;28;20236;-87
2022/07/25 13:10:39;;;;;;;5.07;3.00;;;;;;;;;;5085433;28;20211;-86
2022/07/25 13:13:07;;;;;;;3.20;2.90;;;;;;;;;;5084242;28;20236;-90
2022/07/25 13:15:35;;;;;;;3.80;3.50;;;;;;;;;;5079934;28;20227;-89
2022/07/25 13:18:03;;;;;;;3.20;2.90;;;;;;;;;;5077170;28;20343;-90
2022/07/25 13:20:30;;;;;;;3.45;3.15;;;;;;;;;;5077382;28;20284;-89
2022/07/25 13:22:57;;;;;;;3.40;3.10;;;;;;;;;;5076490;28;20232;-88
2022/07/25 13:25:24;;;;;;;3.63;3.30;;;;;;;;;;5076973;28;20204;-89
2022/07/25 13:27:51;;;;;;;3.58;3.20;;;;;;;;;;5076290;28;20644;-87
2022/07/25 13:30:20;;;;;;;3.70;3.40;;;;;;;;;;5076851;28;20303;-88
2022/07/25 13:32:47;;;;;;;3.80;3.45;;;;;;;;;;5076171;28;20696;-89
2022/07/25 13:35:14;;;;;;;3.72;3.42;;;;;;;;;;5076478;28;20718;-89
2022/07/25 13:37:41;;;;;;;4.05;3.65;;;;;;;;;;5075801;28;20247;-89
2022/07/25 13:40:09;;;;;;;4.53;3.70;;;;;;;;;;5076221;28;20218;-86
2022/07/25 13:42:37;;;;;;;3.85;3.45;;;;;;;;;;5075807;28;20619;-88
2022/07/25 13:45:05;;;;;;;4.40;3.40;;;;;;;;;;5076100;28;20208;-88
2022/07/25 13:47:34;;;;;;;3.80;3.50;;;;;;;;;;5099328;28;20226;-85
2022/07/25 13:50:02;;;;;;;5.00;3.72;;;;;;;;;;5099476;28;20697;-88
2022/07/25 13:52:29;;;;;;;5.32;4.82;;;;;;;;;;5096781;28;20227;-88
2022/07/25 13:54:56;;;;;;;3.80;3.50;;;;;;;;;;5097717;28;20188;-88
2022/07/25 13:57:23;;;;;;;3.90;3.60;;;;;;;;;;5096065;28;20223;-88
2022/07/25 13:59:51;;;;;;;3.95;3.55;;;;;;;;;;5086366;28;20193;-89
2022/07/25 14:02:18;;;;;;;4.53;3.30;;;;;;;;;;5075062;28;20204;-87
2022/07/25 14:04:46;;;;;;;4.22;3.22;;;;;;;;;;5075162;28;20205;-88
2022/07/25 14:07:14;;;;;;;3.88;3.58;;;;;;;;;;5075161;28;20209;-88
2022/07/25 14:09:41;;;;;;;6.38;4.10;;;;;;;;;;5078424;28;20213;-87
2022/07/25 14:12:08;;;;;;;4.88;3.40;;;;;;;;;;5075484;28;20673;-87
2022/07/25 14:14:35;;;;;;;4.68;3.72;;;;;;;;;;5075443;28;20209;-86
2022/07/25 14:17:03;;;;;;;3.42;3.08;;;;;;;;;;5075317;28;20232;-86
2022/07/25 14:19:30;;;;;;;3.95;3.55;;;;;;;;;;5075918;28;20247;-85
2022/07/25 14:21:58;;;;;;;4.05;3.60;;;;;;;;;;5074937;28;20205;-83
2022/07/25 14:24:25;;;;;;;3.65;3.33;;;;;;;;;;5074643;28;20254;-87
2022/07/25 14:26:53;;;;;;;3.95;3.50;;;;;;;;;;5075205;28;20201;-87
2022/07/25 14:29:21;;;;;;;4.20;3.90;;;;;;;;;;5074694;28;20237;-88
2022/07/25 14:31:48;;;;;;;5.32;4.05;;;;;;;;;;5074974;28;20208;-87
2022/07/25 14:34:15;;;;;;;3.83;3.53;;;;;;;;;;5076480;28;20232;-85
2022/07/25 14:36:43;;;;;;;6.85;3.92;;;;;;;;;;5075426;28;20225;-88
2022/07/25 14:39:11;;;;;;;4.45;3.60;;;;;;;;;;5074610;28;20701;-87
2022/07/25 14:41:38;;;;;;;4.30;3.92;;;;;;;;;;5074783;28;20691;-87
2022/07/25 14:44:06;;;;;;;5.45;3.67;;;;;;;;;;5075181;28;21002;-85
2022/07/25 14:46:33;;;;;;;4.45;3.85;;;;;;;;;;5075704;28;20208;-86
2022/07/25 14:49:00;;;;;;;5.40;3.47;;;;;;;;;;5075295;28;20244;-86